Time;durP1;ratioP1;P1;durP2;ratioP2;P2;SDS_P1;SDS_P2;PMS_P1;PMS_P2;Temp;Humidity;BMP_temperature;BMP_pressure;BME280_temperature;BME280_humidity;BME280_pressure;Samples;Min_cycle;Max_cycle;Signal;HPM_P1;HPM_P2
2022/08/23 00:01:25;;;;;;;21.90;12.00;;;;;;;18.99;65.87;101246.66;5034210;28;20026;-64
2022/08/23 00:03:52;;;;;;;20.98;12.60;;;;;;;19.00;65.76;101248.31;5034195;28;20029;-64
2022/08/23 00:06:17;;;;;;;22.35;12.93;;;;;;;18.96;65.93;101242.59;5034331;28;20025;-63
2022/08/23 00:08:44;;;;;;;20.02;12.70;;;;;;;18.97;66.29;101247.03;5034282;28;20071;-63
2022/08/23 00:11:31;;;;;;;21.73;12.50;;;;;;;18.99;65.51;101241.06;5034461;28;20068;-63
2022/08/23 00:13:59;;;;;;;21.25;12.88;;;;;;;18.84;66.22;101228.59;5034486;28;20029;-63
2022/08/23 00:16:24;;;;;;;20.13;12.10;;;;;;;18.89;66.96;101236.75;5034538;28;20472;-63
2022/08/23 00:18:50;;;;;;;24.60;12.93;;;;;;;18.82;67.24;101240.13;5033962;28;20049;-64
2022/08/23 00:21:15;;;;;;;22.23;13.02;;;;;;;18.76;67.38;101233.16;5034401;28;20410;-64
2022/08/23 00:23:41;;;;;;;22.83;13.60;;;;;;;18.68;67.39;101234.91;5033860;28;20026;-63
2022/08/23 00:26:06;;;;;;;21.40;13.18;;;;;;;18.58;68.38;101228.97;5032664;28;20116;-63
2022/08/23 00:28:32;;;;;;;22.95;13.48;;;;;;;18.49;68.85;101229.09;5033706;28;20025;-63
2022/08/23 00:30:58;;;;;;;21.95;13.50;;;;;;;18.42;69.10;101229.66;5033684;28;20496;-64
2022/08/23 00:33:23;;;;;;;20.85;13.23;;;;;;;18.39;69.08;101230.38;5033533;28;20026;-64
2022/08/23 00:35:49;;;;;;;21.20;13.15;;;;;;;18.40;68.32;101232.81;5016001;28;20040;-64
2022/08/23 00:38:14;;;;;;;24.02;14.05;;;;;;;18.40;69.17;101230.03;5033854;28;20511;-64
2022/08/23 00:40:43;;;;;;;21.02;14.27;;;;;;;18.36;69.14;101229.13;5033783;28;20029;-64
2022/08/23 00:49:07;;;;;;;22.70;13.70;;;;;;;18.23;70.07;101236.66;5033639;28;20102;-64
2022/08/23 00:51:40;;;;;;;22.95;13.65;;;;;;;18.19;69.72;101232.13;5015221;28;20033;-64
2022/08/23 00:54:08;;;;;;;23.17;14.18;;;;;;;18.17;69.74;101232.47;5033343;28;20026;-64
2022/08/23 00:56:34;;;;;;;24.55;14.15;;;;;;;18.18;70.06;101241.72;5033059;28;20033;-64
2022/08/23 00:59:00;;;;;;;22.38;14.27;;;;;;;18.13;69.93;101233.53;5032913;28;20076;-64
2022/08/23 01:01:26;;;;;;;22.80;13.95;;;;;;;18.09;71.28;101236.19;5033060;28;20449;-63
2022/08/23 01:03:57;;;;;;;22.67;14.02;;;;;;;18.08;70.98;101237.38;5032951;28;20544;-64
2022/08/23 01:06:44;;;;;;;21.50;14.02;;;;;;;18.04;69.69;101240.03;5032964;28;20120;-64
2022/08/23 01:09:13;;;;;;;21.88;14.38;;;;;;;18.02;70.35;101238.78;5032772;28;20026;-64
2022/08/23 01:11:51;;;;;;;23.95;14.02;;;;;;;18.05;69.56;101250.09;5032624;28;20519;-63
2022/08/23 01:14:24;;;;;;;20.77;14.43;;;;;;;18.12;70.43;101251.47;5032804;28;20112;-63
2022/08/23 01:16:58;;;;;;;23.63;13.98;;;;;;;18.17;70.38;101245.66;5032690;28;20085;-63
2022/08/23 01:19:32;;;;;;;22.80;14.18;;;;;;;18.13;70.99;101241.91;5032758;28;20129;-63
2022/08/23 01:22:08;;;;;;;21.33;14.52;;;;;;;18.03;71.78;101241.22;5032359;28;20532;-63
2022/08/23 01:24:33;;;;;;;21.73;14.38;;;;;;;18.00;71.74;101238.28;5032766;28;20416;-63
2022/08/23 01:26:59;;;;;;;21.92;14.45;;;;;;;17.95;72.11;101246.91;5032778;28;20037;-63
2022/08/23 01:29:24;;;;;;;23.30;15.10;;;;;;;17.94;71.81;101243.25;5032536;28;20505;-63
2022/08/23 01:31:50;;;;;;;22.50;15.02;;;;;;;17.97;71.56;101241.78;5032391;28;20025;-63
2022/08/23 01:34:16;;;;;;;22.02;14.30;;;;;;;17.97;71.47;101244.56;5032101;28;20018;-64
2022/08/23 01:36:44;;;;;;;23.67;15.48;;;;;;;17.87;71.36;101255.03;5032070;28;20084;-63
2022/08/23 01:39:09;;;;;;;23.08;14.90;;;;;;;17.87;72.49;101241.03;5032647;28;20038;-64
2022/08/23 01:41:37;;;;;;;22.50;14.48;;;;;;;17.88;71.98;101248.25;5032594;28;20029;-64
2022/08/23 01:44:03;;;;;;;22.75;14.68;;;;;;;17.84;72.74;101243.72;5032569;28;20025;-64
2022/08/23 01:46:28;;;;;;;23.25;14.60;;;;;;;17.77;73.16;101242.31;5032527;28;20044;-63
2022/08/23 01:48:54;;;;;;;25.27;15.65;;;;;;;17.80;72.43;101238.00;5031907;28;20021;-63
2022/08/23 01:51:20;;;;;;;22.42;14.88;;;;;;;17.77;73.11;101239.50;5032099;28;20119;-63
2022/08/23 01:53:46;;;;;;;23.10;14.60;;;;;;;17.77;72.71;101245.09;5031849;28;20040;-63
2022/08/23 01:56:12;;;;;;;21.73;14.95;;;;;;;17.78;72.45;101251.50;5031854;28;20026;-63
2022/08/23 01:58:37;;;;;;;22.42;15.23;;;;;;;17.75;72.98;101243.81;5032033;28;20025;-63
2022/08/23 02:01:03;;;;;;;22.40;16.02;;;;;;;17.69;72.95;101246.00;5031779;28;20355;-64
2022/08/23 02:03:29;;;;;;;23.30;15.50;;;;;;;17.61;73.70;101244.13;5031776;28;20037;-63
2022/08/23 02:05:55;;;;;;;23.33;15.75;;;;;;;17.58;74.33;101251.22;5032064;28;20036;-63
2022/08/23 02:11:16;;;;;;;23.48;16.10;;;;;;;17.51;73.56;101250.97;5032086;28;20627;-63
2022/08/23 02:13:42;;;;;;;23.73;16.02;;;;;;;17.48;73.68;101243.25;5031912;28;20060;-64
2022/08/23 02:16:08;;;;;;;22.35;14.95;;;;;;;17.46;73.73;101245.59;5031706;28;20112;-64
2022/08/23 02:18:35;;;;;;;24.25;15.90;;;;;;;17.51;74.45;101241.75;5031477;28;20132;-64
2022/08/23 02:21:00;;;;;;;23.35;15.65;;;;;;;17.46;74.31;101240.00;5032215;28;20116;-65
2022/08/23 02:23:26;;;;;;;22.98;15.85;;;;;;;17.49;74.51;101244.88;5031674;28;20124;-64
2022/08/23 02:25:52;;;;;;;24.73;15.98;;;;;;;17.44;74.55;101245.09;5031500;28;20040;-64
2022/08/23 02:28:20;;;;;;;24.60;17.40;;;;;;;17.41;74.22;101243.00;5031343;28;20022;-64
2022/08/23 02:30:48;;;;;;;22.20;16.52;;;;;;;17.34;75.77;101249.13;5031192;28;20362;-64
2022/08/23 02:33:14;;;;;;;25.13;17.30;;;;;;;17.29;75.92;101244.56;5031541;28;20029;-64
2022/08/23 02:35:40;;;;;;;25.17;17.85;;;;;;;17.28;75.99;101245.75;5013720;28;20421;-64
2022/08/23 02:38:07;;;;;;;25.80;18.30;;;;;;;17.16;76.22;101237.28;5031608;28;20045;-65
2022/08/23 02:40:34;;;;;;;26.08;18.60;;;;;;;17.19;76.43;101250.59;5031312;28;20038;-64
2022/08/23 02:42:59;;;;;;;27.08;18.85;;;;;;;17.15;77.08;101256.03;5031437;28;20033;-62
2022/08/23 02:45:26;;;;;;;26.40;19.15;;;;;;;17.14;76.50;101267.56;5031579;28;20033;-63
2022/08/23 02:47:51;;;;;;;26.35;19.10;;;;;;;17.12;77.08;101264.28;5012883;28;20029;-63
2022/08/23 02:50:18;;;;;;;25.80;18.88;;;;;;;17.09;77.08;101270.56;5031264;28;20071;-63
2022/08/23 02:52:43;;;;;;;25.00;19.45;;;;;;;17.11;77.00;101269.06;5031476;28;20067;-62
2022/08/23 02:55:09;;;;;;;26.58;20.00;;;;;;;17.10;76.79;101274.97;5031179;28;20373;-63
2022/08/23 02:57:35;;;;;;;27.10;19.58;;;;;;;17.10;76.93;101278.63;5030859;28;20052;-64
2022/08/23 03:00:02;;;;;;;26.60;18.90;;;;;;;17.12;76.84;101276.31;5031019;28;20030;-63
2022/08/23 03:02:28;;;;;;;27.17;18.70;;;;;;;17.16;76.54;101268.03;5030843;28;20163;-64
2022/08/23 03:04:53;;;;;;;25.55;19.17;;;;;;;17.15;76.27;101272.00;5030991;28;20458;-64
2022/08/23 03:07:18;;;;;;;25.27;18.35;;;;;;;17.10;77.01;101272.19;5031251;28;20053;-63
2022/08/23 03:09:44;;;;;;;27.58;19.05;;;;;;;17.03;77.34;101267.16;5030824;28;20017;-64
2022/08/23 03:12:09;;;;;;;25.48;18.33;;;;;;;17.07;76.80;101267.28;5030742;28;20494;-64
2022/08/23 03:14:36;;;;;;;27.58;19.35;;;;;;;17.07;76.94;101272.88;5030633;28;20087;-63
2022/08/23 03:17:02;;;;;;;25.52;19.15;;;;;;;17.04;76.67;101273.56;5031246;28;20029;-64
2022/08/23 03:19:27;;;;;;;24.65;18.65;;;;;;;17.07;76.55;101282.06;5031701;28;20061;-65
2022/08/23 03:21:52;;;;;;;26.67;18.08;;;;;;;17.05;76.90;101286.38;5030888;28;20029;-64
2022/08/23 03:24:18;;;;;;;28.67;19.23;;;;;;;17.09;77.00;101290.94;5030952;28;20446;-63
2022/08/23 03:26:44;;;;;;;24.60;18.35;;;;;;;17.10;77.15;101295.38;5031131;28;20075;-63
2022/08/23 03:29:10;;;;;;;24.85;18.52;;;;;;;17.13;76.64;101291.91;5030974;28;20029;-63
2022/08/23 03:31:35;;;;;;;27.83;19.48;;;;;;;17.14;76.75;101293.53;5031351;28;20414;-64
2022/08/23 03:34:01;;;;;;;26.83;18.02;;;;;;;17.18;76.63;101290.06;5031439;28;20025;-63
2022/08/23 03:36:27;;;;;;;25.38;18.00;;;;;;;17.17;76.59;101289.25;5031466;28;20205;-64
2022/08/23 03:38:52;;;;;;;25.15;18.85;;;;;;;17.19;76.09;101289.75;5031487;28;20175;-64
2022/08/23 03:41:17;;;;;;;26.80;19.45;;;;;;;17.20;76.81;101290.53;5031061;28;20056;-65
2022/08/23 03:43:42;;;;;;;26.25;18.85;;;;;;;17.15;77.66;101291.56;5031083;28;20033;-64
2022/08/23 03:46:08;;;;;;;25.75;18.08;;;;;;;17.14;77.73;101295.50;5012976;28;20057;-64
2022/08/23 03:48:34;;;;;;;25.85;18.88;;;;;;;17.13;77.71;101300.31;5031012;28;20496;-64
2022/08/23 03:50:59;;;;;;;26.58;18.80;;;;;;;17.09;78.22;101298.53;5031155;28;20041;-65
2022/08/23 03:53:24;;;;;;;25.25;18.70;;;;;;;17.08;78.22;101297.69;5030702;28;20431;-65
2022/08/23 03:55:53;;;;;;;26.50;18.08;;;;;;;17.07;78.45;101300.84;5030266;28;20042;-65
2022/08/23 03:58:20;;;;;;;26.13;19.33;;;;;;;17.06;78.34;101299.19;5030641;28;20555;-65
2022/08/23 04:00:46;;;;;;;26.60;18.85;;;;;;;17.08;78.65;101299.69;5032640;28;20044;-64
2022/08/23 04:03:11;;;;;;;26.67;19.20;;;;;;;17.06;78.88;101299.19;5034566;28;20029;-64
2022/08/23 04:05:37;;;;;;;25.55;19.05;;;;;;;17.07;79.02;101295.25;5034418;28;20033;-64
2022/08/23 04:08:09;;;;;;;27.52;19.40;;;;;;;17.02;79.27;101281.47;5034971;28;20029;-64
2022/08/23 04:10:35;;;;;;;25.52;19.20;;;;;;;17.02;80.23;101293.47;5034663;28;20040;-64
2022/08/23 04:13:00;;;;;;;25.35;18.63;;;;;;;16.99;80.88;101294.13;5034830;28;20029;-64
2022/08/23 04:15:25;;;;;;;27.55;19.05;;;;;;;16.96;81.03;101292.00;5034603;28;20462;-64
2022/08/23 04:17:50;;;;;;;25.58;19.33;;;;;;;16.99;81.13;101294.97;5034325;28;20140;-64
2022/08/23 04:20:16;;;;;;;26.42;18.50;;;;;;;17.06;80.57;101300.00;5032862;28;20431;-63
2022/08/23 04:22:42;;;;;;;25.95;18.75;;;;;;;17.03;80.76;101299.88;5034571;28;20148;-65
2022/08/23 04:25:07;;;;;;;25.02;17.92;;;;;;;17.05;80.72;101311.53;5034234;28;20025;-64
2022/08/23 04:27:33;;;;;;;26.17;18.80;;;;;;;17.04;80.75;101309.91;5033830;28;20079;-64
2022/08/23 04:29:58;;;;;;;26.67;19.38;;;;;;;17.00;80.78;101302.19;5033822;28;20053;-64
2022/08/23 04:32:23;;;;;;;27.80;19.15;;;;;;;17.00;81.08;101298.56;5033894;28;20033;-63
2022/08/23 04:34:49;;;;;;;25.63;18.73;;;;;;;17.02;81.29;101309.41;5034205;28;20431;-63
2022/08/23 04:37:14;;;;;;;26.85;18.52;;;;;;;16.99;81.59;101308.13;5034236;28;20037;-64
2022/08/23 04:42:25;;;;;;;25.52;19.15;;;;;;;16.97;81.80;101322.44;5033873;28;20099;-64
2022/08/23 04:44:50;;;;;;;25.23;19.00;;;;;;;16.98;82.04;101312.06;5033566;28;20167;-64
2022/08/23 04:47:16;;;;;;;23.98;18.90;;;;;;;16.96;82.08;101312.41;5033836;28;20021;-64
2022/08/23 04:49:41;;;;;;;25.52;18.98;;;;;;;17.02;81.67;101306.59;5033388;28;20026;-64
2022/08/23 04:52:07;;;;;;;26.13;18.90;;;;;;;17.02;81.48;101315.00;5033193;28;20121;-63
2022/08/23 04:54:32;;;;;;;26.67;19.45;;;;;;;17.07;80.99;101303.63;5033512;28;20643;-64
2022/08/23 04:56:57;;;;;;;24.98;18.10;;;;;;;17.13;81.12;101317.06;5033282;28;20029;-64
2022/08/23 04:59:23;;;;;;;25.58;18.25;;;;;;;17.11;81.48;101322.19;5015192;28;20037;-63
2022/08/23 05:01:49;;;;;;;26.02;18.70;;;;;;;17.14;81.48;101313.09;5033071;28;20479;-63
2022/08/23 05:04:15;;;;;;;27.65;18.85;;;;;;;17.12;81.79;101309.00;5033570;28;20022;-63
2022/08/23 05:06:40;;;;;;;25.27;18.55;;;;;;;17.21;81.77;101315.34;5033554;28;20032;-64
2022/08/23 05:09:06;;;;;;;26.20;18.33;;;;;;;17.28;81.32;101324.03;5033339;28;20136;-64
2022/08/23 05:11:31;;;;;;;24.38;18.60;;;;;;;17.35;80.74;101328.25;5033007;28;20072;-63
2022/08/23 05:13:56;;;;;;;26.60;19.38;;;;;;;17.32;80.36;101321.38;5033158;28;20033;-64
2022/08/23 05:16:22;;;;;;;27.13;19.02;;;;;;;17.44;80.42;101329.00;5033467;28;20096;-64
2022/08/23 05:18:48;;;;;;;27.50;19.13;;;;;;;17.41;80.73;101326.88;5033131;28;20132;-64
2022/08/23 05:21:19;;;;;;;26.45;18.48;;;;;;;17.46;80.91;101330.31;5033128;28;20033;-64
2022/08/23 05:23:45;;;;;;;26.73;19.05;;;;;;;17.46;81.54;101323.91;5033025;28;20222;-63
2022/08/23 05:26:11;;;;;;;25.42;18.67;;;;;;;17.48;80.97;101312.34;5033301;28;20037;-64
2022/08/23 05:28:40;;;;;;;26.83;19.48;;;;;;;17.52;80.61;101313.31;5033232;28;20026;-64
2022/08/23 05:31:12;;;;;;;27.58;19.75;;;;;;;17.54;80.33;101316.56;5032901;28;20030;-63
2022/08/23 05:33:39;;;;;;;26.27;19.48;;;;;;;17.65;80.25;101328.19;5032541;28;20108;-64
2022/08/23 05:36:05;;;;;;;27.58;20.20;;;;;;;17.66;79.94;101332.63;5033225;28;20111;-63
2022/08/23 05:38:31;;;;;;;25.98;21.00;;;;;;;17.68;79.87;101345.09;5032861;28;20029;-63
2022/08/23 05:40:57;;;;;;;28.63;20.80;;;;;;;17.74;79.77;101348.50;5033106;28;20076;-64
2022/08/23 05:43:24;;;;;;;27.88;21.50;;;;;;;17.74;79.77;101348.50;5015284;28;20573;-65
2022/08/23 05:46:02;;;;;;;30.95;22.55;;;;;;;17.74;79.38;101354.09;5032647;28;20045;-65
2022/08/23 05:48:27;;;;;;;29.63;22.38;;;;;;;17.82;79.31;101363.56;5032510;28;20512;-64
2022/08/23 05:50:53;;;;;;;28.35;22.65;;;;;;;17.80;78.70;101363.09;5032502;28;20037;-65
2022/08/23 05:53:18;;;;;;;29.83;22.40;;;;;;;17.84;78.34;101372.44;5032905;28;20120;-65
2022/08/23 05:55:43;;;;;;;30.88;23.63;;;;;;;17.89;78.00;101369.44;5032827;28;20029;-64
2022/08/23 05:58:09;;;;;;;29.10;22.35;;;;;;;17.98;78.08;101367.41;5032668;28;20052;-65
2022/08/23 06:00:34;;;;;;;29.48;22.83;;;;;;;18.05;78.18;101373.25;5032816;28;20038;-65
2022/08/23 06:03:00;;;;;;;30.25;22.10;;;;;;;18.18;77.97;101371.31;5032733;28;20030;-65
2022/08/23 06:05:25;;;;;;;28.02;22.67;;;;;;;18.25;77.69;101376.34;5014433;28;20378;-65
2022/08/23 06:07:51;;;;;;;28.60;22.08;;;;;;;18.32;77.61;101376.59;5032727;28;20029;-64
2022/08/23 06:10:19;;;;;;;28.48;22.33;;;;;;;18.43;77.16;101376.97;5019748;28;20033;-65
2022/08/23 06:12:44;;;;;;;27.75;22.23;;;;;;;18.43;76.77;101376.16;5012737;28;20072;-64
2022/08/23 06:15:09;;;;;;;27.60;22.50;;;;;;;18.52;76.88;101376.88;5011939;28;20056;-63
2022/08/23 06:17:35;;;;;;;29.40;23.88;;;;;;;18.55;76.45;101365.78;5012414;28;20418;-64
2022/08/23 06:20:01;;;;;;;30.92;25.92;;;;;;;18.60;76.56;101381.56;5012473;28;20056;-64
2022/08/23 06:22:28;;;;;;;33.03;25.95;;;;;;;18.62;76.74;101370.81;5012184;28;20084;-65
2022/08/23 06:24:53;;;;;;;30.50;26.80;;;;;;;18.74;76.38;101378.41;5011657;28;20033;-64
2022/08/23 06:27:19;;;;;;;31.75;26.95;;;;;;;18.80;76.62;101382.59;5012281;28;20025;-65
2022/08/23 06:29:44;;;;;;;31.58;26.50;;;;;;;18.91;76.35;101374.56;5012314;28;20479;-65
2022/08/23 06:32:10;;;;;;;30.55;27.25;;;;;;;19.01;75.84;101376.94;5012215;28;20026;-64
2022/08/23 06:34:37;;;;;;;32.33;27.35;;;;;;;19.08;75.25;101381.13;5011899;28;20026;-64
2022/08/23 06:37:08;;;;;;;30.90;27.23;;;;;;;19.11;75.85;101372.03;5011939;28;20033;-64
2022/08/23 06:39:33;;;;;;;29.80;26.13;;;;;;;19.28;76.35;101371.75;5012046;28;20451;-64
2022/08/23 06:42:01;;;;;;;28.80;24.95;;;;;;;19.36;74.93;101372.81;5012390;28;20121;-65
2022/08/23 06:44:28;;;;;;;29.38;24.20;;;;;;;19.48;74.48;101383.19;5012224;28;20026;-64
2022/08/23 06:46:55;;;;;;;29.05;24.50;;;;;;;19.58;74.78;101374.28;5012046;28;20036;-64
2022/08/23 06:49:20;;;;;;;31.20;24.95;;;;;;;19.71;74.05;101377.84;5012161;28;20078;-64
2022/08/23 06:51:49;;;;;;;30.15;23.45;;;;;;;19.82;73.87;101377.34;5012077;28;20105;-65
2022/08/23 06:54:19;;;;;;;30.30;24.42;;;;;;;19.87;73.15;101380.75;5011985;28;20022;-65
2022/08/23 06:56:44;;;;;;;29.05;24.45;;;;;;;19.96;72.68;101380.56;5012177;28;20100;-65
2022/08/23 06:59:11;;;;;;;27.73;23.25;;;;;;;20.02;72.26;101367.94;5012303;28;20493;-65
2022/08/23 07:01:52;;;;;;;32.22;23.90;;;;;;;19.98;71.55;101357.78;5012053;28;20025;-65
2022/08/23 07:04:33;;;;;;;29.45;23.58;;;;;;;20.06;70.56;101365.22;5012158;28;20120;-64
2022/08/23 07:07:00;;;;;;;28.88;23.30;;;;;;;20.14;70.22;101378.28;5011791;28;20065;-64
2022/08/23 07:09:26;;;;;;;28.90;24.20;;;;;;;20.12;69.48;101374.19;5011583;28;20041;-64
2022/08/23 07:11:51;;;;;;;30.85;25.58;;;;;;;20.12;70.34;101377.00;5012017;28;20026;-64
2022/08/23 07:14:19;;;;;;;30.73;22.35;;;;;;;20.25;70.38;101378.56;5011906;28;20030;-65
2022/08/23 07:16:48;;;;;;;29.92;23.40;;;;;;;20.26;70.04;101381.00;5011663;28;20041;-65
2022/08/23 07:19:15;;;;;;;30.35;24.38;;;;;;;20.27;69.65;101385.44;5011323;28;20483;-64
2022/08/23 07:21:41;;;;;;;31.98;25.17;;;;;;;20.24;68.57;101374.94;5011908;28;20034;-64
2022/08/23 07:24:08;;;;;;;28.60;24.35;;;;;;;20.25;68.96;101376.59;5011809;28;20109;-64
2022/08/23 07:26:34;;;;;;;27.17;23.00;;;;;;;20.37;68.90;101380.47;5009598;28;20026;-64
2022/08/23 07:29:05;;;;;;;30.30;23.35;;;;;;;20.46;67.93;101385.94;5010890;28;20057;-65
2022/08/23 07:31:33;;;;;;;29.85;24.17;;;;;;;20.52;67.58;101385.31;5009155;28;20454;-64
2022/08/23 07:34:01;;;;;;;26.83;22.13;;;;;;;20.59;67.05;101393.13;5010615;28;20034;-64
2022/08/23 07:36:28;;;;;;;28.38;24.13;;;;;;;20.66;67.55;101395.28;5012883;28;20092;-63
2022/08/23 07:38:55;;;;;;;28.33;23.27;;;;;;;20.76;67.26;101391.94;5014180;28;20033;-63
2022/08/23 07:41:23;;;;;;;29.17;23.73;;;;;;;20.84;65.99;101396.56;5014229;28;20145;-63
2022/08/23 07:43:48;;;;;;;28.25;23.38;;;;;;;20.88;65.40;101399.47;5013495;28;20476;-63
2022/08/23 07:46:16;;;;;;;27.95;23.50;;;;;;;21.03;66.10;101401.47;5013709;28;20029;-63
2022/08/23 07:48:41;;;;;;;30.05;23.00;;;;;;;21.17;65.98;101405.78;5013274;28;20030;-64
2022/08/23 07:51:10;;;;;;;30.52;23.85;;;;;;;21.27;65.18;101401.59;5013112;28;20096;-64
2022/08/23 07:53:35;;;;;;;27.77;23.15;;;;;;;21.42;65.04;101405.56;5013672;28;20493;-64
2022/08/23 07:56:09;;;;;;;29.15;23.42;;;;;;;21.53;64.45;101415.06;5013909;28;20038;-62
2022/08/23 07:58:35;;;;;;;29.10;24.48;;;;;;;21.59;63.59;101409.97;5013658;28;20366;-64
2022/08/23 08:01:14;;;;;;;29.65;24.63;;;;;;;21.63;63.79;101417.31;5013711;28;20034;-62
2022/08/23 08:03:42;;;;;;;32.08;24.25;;;;;;;21.69;63.50;101414.22;5014049;28;20131;-61
2022/08/23 08:06:14;;;;;;;30.15;25.95;;;;;;;21.74;63.91;101416.72;5013361;28;20525;-61
2022/08/23 08:08:41;;;;;;;29.08;24.67;;;;;;;21.79;63.18;101420.06;5013616;28;20091;-61
2022/08/23 08:11:09;;;;;;;33.60;22.85;;;;;;;21.86;62.80;101421.44;5013923;28;20048;-61
2022/08/23 08:13:40;;;;;;;27.92;24.30;;;;;;;21.92;62.83;101417.94;5013543;28;20064;-61
2022/08/23 08:16:07;;;;;;;29.92;24.05;;;;;;;21.97;62.41;101420.47;5013257;28;20034;-60
2022/08/23 08:18:32;;;;;;;27.25;21.90;;;;;;;22.12;63.71;101429.19;5013178;28;20168;-60
2022/08/23 08:20:57;;;;;;;29.08;22.17;;;;;;;22.17;61.13;101428.91;5013663;28;20051;-60
2022/08/23 08:23:23;;;;;;;28.05;22.23;;;;;;;22.30;60.93;101426.72;5013284;28;20026;-61
2022/08/23 08:25:48;;;;;;;30.52;22.48;;;;;;;22.39;61.70;101429.28;5013351;28;20104;-60
2022/08/23 08:28:13;;;;;;;27.42;21.83;;;;;;;22.52;61.03;101427.19;5013450;28;20030;-61
2022/08/23 08:30:39;;;;;;;27.52;21.90;;;;;;;22.63;61.33;101427.34;5012130;28;20304;-61
2022/08/23 08:33:04;;;;;;;29.67;21.83;;;;;;;22.67;59.88;101434.69;5011729;28;20041;-60
2022/08/23 08:35:29;;;;;;;28.38;21.35;;;;;;;22.72;60.58;101425.91;5013247;28;20038;-62
2022/08/23 08:37:55;;;;;;;25.75;19.88;;;;;;;22.81;60.32;101433.31;5012497;28;20053;-61
2022/08/23 08:40:33;;;;;;;27.38;20.27;;;;;;;22.79;58.17;101418.78;5012590;28;20034;-61
2022/08/23 08:43:05;;;;;;;26.70;19.10;;;;;;;22.92;57.75;101437.13;5012629;28;20030;-62
2022/08/23 08:45:50;;;;;;;25.80;19.60;;;;;;;23.02;58.12;101430.03;5012399;28;20547;-62
2022/08/23 08:48:20;;;;;;;27.92;19.63;;;;;;;23.13;57.17;101431.03;5012719;28;20038;-63
2022/08/23 08:50:55;;;;;;;28.83;20.33;;;;;;;23.18;57.42;101418.59;5012889;28;20686;-62
2022/08/23 08:53:38;;;;;;;29.63;21.60;;;;;;;23.31;58.06;101430.53;5012934;28;20042;-62
2022/08/23 08:56:17;;;;;;;27.20;20.25;;;;;;;23.41;57.58;101431.88;5012545;28;20081;-62
2022/08/23 08:58:52;;;;;;;27.75;20.42;;;;;;;23.63;57.79;101444.28;5013133;28;20478;-62
2022/08/23 09:01:20;;;;;;;27.20;20.63;;;;;;;23.73;57.87;101437.16;5013009;28;20034;-61
2022/08/23 09:03:47;;;;;;;27.60;21.13;;;;;;;23.95;55.90;101439.06;5013065;28;20053;-62
2022/08/23 09:06:20;;;;;;;25.70;20.35;;;;;;;24.05;55.58;101446.06;5013015;28;20030;-62
2022/08/23 09:08:58;;;;;;;28.48;20.52;;;;;;;24.12;54.78;101443.34;5011160;28;20472;-63
2022/08/23 09:11:35;;;;;;;27.17;20.35;;;;;;;24.24;55.79;101449.94;5023313;28;20042;-62
2022/08/23 09:14:16;;;;;;;26.67;19.90;;;;;;;24.33;54.40;101450.44;5012805;28;20034;-62
2022/08/23 09:16:46;;;;;;;28.45;19.95;;;;;;;24.59;53.43;101449.50;5011347;28;20153;-62
2022/08/23 09:19:11;;;;;;;27.27;19.23;;;;;;;24.81;52.02;101446.09;5012308;28;20124;-62
2022/08/23 09:21:44;;;;;;;26.98;18.20;;;;;;;25.06;52.68;101446.31;5012609;28;20105;-61
2022/08/23 09:24:09;;;;;;;26.50;18.70;;;;;;;25.12;50.93;101443.94;5012535;28;20034;-61
2022/08/23 09:26:35;;;;;;;25.40;18.30;;;;;;;25.17;52.51;101449.22;5012531;28;20026;-62
2022/08/23 09:29:11;;;;;;;26.25;18.45;;;;;;;25.21;51.79;101450.88;5012577;28;20461;-62
2022/08/23 09:31:43;;;;;;;26.33;17.85;;;;;;;25.18;51.82;101431.81;4995221;28;20316;-61
2022/08/23 09:34:14;;;;;;;24.58;16.88;;;;;;;25.30;51.79;101442.03;5012192;28;20030;-61
2022/08/23 09:36:40;;;;;;;24.58;16.42;;;;;;;25.40;51.53;101442.53;5012299;28;20480;-62
2022/08/23 09:39:22;;;;;;;24.40;16.45;;;;;;;25.50;51.00;101438.97;5012658;28;20026;-62
2022/08/23 09:41:48;;;;;;;25.77;16.10;;;;;;;25.67;51.20;101443.06;5012237;28;20414;-63
2022/08/23 09:44:33;;;;;;;24.05;15.07;;;;;;;25.75;51.31;101436.22;5011725;28;20056;-61
2022/08/23 09:47:14;;;;;;;22.33;13.85;;;;;;;25.97;50.88;101444.84;5012010;28;20033;-62
2022/08/23 09:49:42;;;;;;;24.02;13.18;;;;;;;26.05;48.84;101448.53;5012216;28;20210;-64
2022/08/23 09:52:18;;;;;;;22.17;12.82;;;;;;;26.02;48.26;101452.97;5011707;28;20068;-61
2022/08/23 09:55:03;;;;;;;21.25;11.50;;;;;;;25.93;48.26;101438.38;5011812;28;20069;-63
2022/08/23 09:57:32;;;;;;;20.75;11.70;;;;;;;25.83;47.59;101425.75;5011895;28;20034;-63
2022/08/23 10:00:15;;;;;;;21.35;12.40;;;;;;;25.87;47.13;101437.09;5011910;28;20025;-61
2022/08/23 10:02:40;;;;;;;;;;;;;;;26.00;48.34;101432.72;5012247;28;20030;-61
2022/08/23 10:05:18;;;;;;;22.50;11.17;;;;;;;25.89;47.96;101424.16;5012050;28;20521;-63
2022/08/23 10:07:54;;;;;;;22.42;10.65;;;;;;;25.97;47.67;101425.84;5011896;28;20136;-62
2022/08/23 10:10:35;;;;;;;20.63;10.38;;;;;;;26.13;47.10;101436.81;4994155;28;20509;-61
2022/08/23 10:13:02;;;;;;;19.00;11.55;;;;;;;26.11;46.78;101422.25;5011724;28;20048;-61
2022/08/23 10:15:34;;;;;;;19.70;11.52;;;;;;;26.15;46.59;101431.56;5011607;28;20030;-62
2022/08/23 10:18:10;;;;;;;18.45;10.50;;;;;;;26.24;46.08;101428.38;5011332;28;20056;-62
2022/08/23 10:20:51;;;;;;;19.70;10.35;;;;;;;26.28;46.46;101402.84;5011427;28;20034;-61
2022/08/23 10:23:42;;;;;;;19.77;10.45;;;;;;;26.40;46.86;101427.19;5011332;28;20034;-62
2022/08/23 10:26:36;;;;;;;23.38;11.60;;;;;;;26.47;46.64;101428.00;5011357;28;20033;-61
2022/08/23 10:29:37;;;;;;;19.92;11.88;;;;;;;26.49;46.66;101413.41;5011211;28;20029;-61
2022/08/23 10:32:36;;;;;;;21.55;11.52;;;;;;;26.70;46.82;101431.69;5011162;28;20101;-61
2022/08/23 10:35:24;;;;;;;22.70;11.95;;;;;;;26.58;46.40;101411.00;5011188;28;20038;-62
2022/08/23 10:38:14;;;;;;;21.40;11.65;;;;;;;26.62;46.45;101430.84;5011514;28;20025;-62
2022/08/23 10:41:00;;;;;;;19.55;11.27;;;;;;;26.66;46.49;101422.34;5011064;28;20040;-62
2022/08/23 10:43:51;;;;;;;20.50;11.90;;;;;;;26.83;46.34;101426.44;5010207;28;20037;-62
2022/08/23 10:46:20;;;;;;;22.00;11.75;;;;;;;26.90;46.06;101421.59;5011420;28;20096;-62
2022/08/23 10:48:52;;;;;;;19.83;10.82;;;;;;;26.80;45.32;101421.56;5011140;28;20034;-62
2022/08/23 10:51:31;;;;;;;20.15;11.50;;;;;;;26.55;45.56;101428.00;5011091;28;20054;-63
2022/08/23 10:54:00;;;;;;;20.25;10.38;;;;;;;26.41;45.66;101417.47;4993248;28;20483;-62
2022/08/23 10:56:27;;;;;;;20.38;10.98;;;;;;;26.36;44.74;101420.69;5010870;28;20026;-62
2022/08/23 10:59:00;;;;;;;18.65;10.40;;;;;;;26.45;45.02;101418.28;5010753;28;20096;-61
2022/08/23 11:01:33;;;;;;;19.42;10.75;;;;;;;26.62;45.35;101414.66;5010537;28;20107;-62
2022/08/23 11:04:03;;;;;;;20.00;10.55;;;;;;;26.65;44.00;101396.00;4992913;28;20528;-62
2022/08/23 11:06:34;;;;;;;18.88;10.07;;;;;;;26.86;44.08;101409.41;4992888;28;20030;-62
2022/08/23 11:09:05;;;;;;;18.70;9.48;;;;;;;27.08;43.99;101407.38;5010060;28;20036;-62
2022/08/23 11:11:48;;;;;;;19.65;9.60;;;;;;;27.27;43.13;101415.88;5010440;28;20061;-62
2022/08/23 11:14:35;;;;;;;16.67;9.00;;;;;;;27.50;43.20;101409.75;5010706;28;20026;-60
2022/08/23 11:17:04;;;;;;;17.08;8.90;;;;;;;27.68;42.36;101399.13;5010614;28;20163;-61
2022/08/23 11:19:51;;;;;;;13.93;8.95;;;;;;;27.81;42.13;101390.16;5010522;28;20106;-61
2022/08/23 11:22:23;;;;;;;16.80;8.50;;;;;;;28.00;41.21;101412.41;5010520;28;20026;-61
2022/08/23 11:25:24;;;;;;;17.75;8.90;;;;;;;27.83;41.55;101401.91;5010811;28;20072;-62
2022/08/23 11:28:21;;;;;;;15.43;9.07;;;;;;;28.11;42.28;101420.06;5009936;28;20120;-61
2022/08/23 11:30:49;;;;;;;17.10;9.10;;;;;;;27.84;40.23;101412.06;5010307;28;20091;-62